Pythagoras — C6ZO4 — position and weather

sailwx.info

Track history (hours):
 
Tides and Currents Weather Stations Pressure Air Temp Water Temp Dewpoint Dewpoint Depression Visibility Wind Speed Wind Dir Waves Ship Positions

Pythagoras

Last reported at 2016-Jun-29 01:32 UTC. Time now 2016-Jun-29 02:08 UTC.
Position N 37°32' E 009°52'.

Length 190 m; draft 12.5 m.

Type: Cargo ship. MMSI: 311061300.

Date/timePositionNaut miles runAvg speedWind from/ knotsBaromVisibWave heightAir tempDewpointWater temp
2016-Jun-29 01:32N 37°32' E 009°52'1313.7
2016-Jun-29 00:33N 37°29' E 009°35'1413.5
2016-Jun-28 23:33N 37°25' E 009°19'27313.0
2016-Jun-28 02:33N 37°09' E 003°36'21013.1
2016-Jun-27 10:29N 36°34' W 000°43'21813.5
2016-Jun-26 18:23N 36°03' W 005°10'1012.2
2016-Jun-26 17:33N 36°07' W 005°22'1 1.2
2016-Jun-26 16:31N 36°08' W 005°22'0 0.0
2016-Jun-26 15:31N 36°08' W 005°22'0 0.2
2016-Jun-26 14:31N 36°08' W 005°22'0 0.0
2016-Jun-26 13:31N 36°08' W 005°22'0 0.1
2016-Jun-26 12:31N 36°08' W 005°22'0 0.0
2016-Jun-26 11:31N 36°08' W 005°22'0 0.1
2016-Jun-26 10:31N 36°08' W 005°22'0 0.1
2016-Jun-26 09:31N 36°08' W 005°22'2 2.2
2016-Jun-26 08:33N 36°06' W 005°22'2 1.6
2016-Jun-26 07:33N 36°04' W 005°22'7 6.8
2016-Jun-26 06:34N 35°58' W 005°26'30113.1
2016-Jun-25 07:33N 36°36' W 011°37'1313.0
2016-Jun-25 06:33N 36°38' W 011°53'9412.9
2016-Jun-24 23:17N 36°52' W 013°49'46613.0
2016-Jun-23 11:27N 37°25' W 023°33'1213.2
2016-Jun-23 10:33N 37°25' W 023°47'1313.2
2016-Jun-23 09:33N 37°26' W 024°04'1313.4
2016-Jun-23 08:33N 37°26' W 024°21'1313.5
2016-Jun-23 07:33N 37°27' W 024°38'2713.5
2016-Jun-23 05:33N 37°27' W 025°12'1413.5
2016-Jun-23 04:33N 37°27' W 025°29'1313.4
2016-Jun-23 03:33N 37°26' W 025°46'1313.2
2016-Jun-23 02:33N 37°27' W 026°02'1313.3
2016-Jun-23 01:33N 37°27' W 026°19'1313.0
2016-Jun-23 00:34N 37°26' W 026°35'1313.0
2016-Jun-22 23:34N 37°26' W 026°52'1413.7
2016-Jun-22 22:33N 37°26' W 027°09'1413.5
2016-Jun-22 21:32N 37°26' W 027°26'1313.2
2016-Jun-22 20:31N 37°26' W 027°43'1313.3
2016-Jun-22 19:33N 37°26' W 027°59'1313.4
2016-Jun-22 18:33N 37°26' W 028°16'1413.5
2016-Jun-22 17:33N 37°26' W 028°33'1313.4
2016-Jun-22 16:33N 37°26' W 028°50'1312.9
2016-Jun-22 15:33N 37°25' W 029°06'1312.7
2016-Jun-22 14:33N 37°25' W 029°23'1212.4
2016-Jun-22 13:33N 37°25' W 029°38'1212.6
2016-Jun-22 12:34N 37°25' W 029°54'1312.8
2016-Jun-22 11:33N 37°25' W 030°10'1313.0
2016-Jun-22 10:33N 37°24' W 030°26'1313.0
2016-Jun-22 09:33N 37°23' W 030°43'1313.0
2016-Jun-22 08:33N 37°22' W 030°59'1313.4
2016-Jun-22 07:33N 37°21' W 031°16'1313.4
2016-Jun-22 06:34N 37°20' W 031°32'1413.7
2016-Jun-22 05:33N 37°19' W 031°50'1313.3
2016-Jun-22 04:33N 37°19' W 032°06'1313.2
2016-Jun-22 03:34N 37°18' W 032°23'1313.4
2016-Jun-22 02:33N 37°17' W 032°40'1312.9
2016-Jun-22 01:34N 37°16' W 032°56'1313.0
2016-Jun-22 00:33N 37°15' W 033°12'1313.1
2016-Jun-21 23:33N 37°15' W 033°29'1312.7
2016-Jun-21 22:32N 37°14' W 033°45'5213.1
2016-Jun-21 18:33N 37°10' W 034°50'1513.3
2016-Jun-21 17:24N 37°09' W 035°09'  
Track history (hours):
 
Tides and Currents Weather Stations Pressure Air Temp Water Temp Dewpoint Dewpoint Depression Visibility Wind Speed Wind Dir Waves Ship Positions

Pythagoras

Last reported at 2016-Jun-29 01:32 UTC. Time now 2016-Jun-29 02:08 UTC.
Position N 37°32' E 009°52'.

Length 190 m; draft 12.5 m.

Type: Cargo ship. MMSI: 311061300.

Date/timePositionNaut miles runAvg speedWind from/ knotsBaromVisibWave heightAir tempDewpointWater temp
2016-Jun-29 01:32N 37°32' E 009°52'1313.7
2016-Jun-29 00:33N 37°29' E 009°35'1413.5
2016-Jun-28 23:33N 37°25' E 009°19'27313.0
2016-Jun-28 02:33N 37°09' E 003°36'21013.1
2016-Jun-27 10:29N 36°34' W 000°43'21813.5
2016-Jun-26 18:23N 36°03' W 005°10'1012.2
2016-Jun-26 17:33N 36°07' W 005°22'1 1.2
2016-Jun-26 16:31N 36°08' W 005°22'0 0.0
2016-Jun-26 15:31N 36°08' W 005°22'0 0.2
2016-Jun-26 14:31N 36°08' W 005°22'0 0.0
2016-Jun-26 13:31N 36°08' W 005°22'0 0.1
2016-Jun-26 12:31N 36°08' W 005°22'0 0.0
2016-Jun-26 11:31N 36°08' W 005°22'0 0.1
2016-Jun-26 10:31N 36°08' W 005°22'0 0.1
2016-Jun-26 09:31N 36°08' W 005°22'2 2.2
2016-Jun-26 08:33N 36°06' W 005°22'2 1.6
2016-Jun-26 07:33N 36°04' W 005°22'7 6.8
2016-Jun-26 06:34N 35°58' W 005°26'30113.1
2016-Jun-25 07:33N 36°36' W 011°37'1313.0
2016-Jun-25 06:33N 36°38' W 011°53'9412.9
2016-Jun-24 23:17N 36°52' W 013°49'46613.0
2016-Jun-23 11:27N 37°25' W 023°33'1213.2
2016-Jun-23 10:33N 37°25' W 023°47'1313.2
2016-Jun-23 09:33N 37°26' W 024°04'1313.4
2016-Jun-23 08:33N 37°26' W 024°21'1313.5
2016-Jun-23 07:33N 37°27' W 024°38'2713.5
2016-Jun-23 05:33N 37°27' W 025°12'1413.5
2016-Jun-23 04:33N 37°27' W 025°29'1313.4
2016-Jun-23 03:33N 37°26' W 025°46'1313.2
2016-Jun-23 02:33N 37°27' W 026°02'1313.3
2016-Jun-23 01:33N 37°27' W 026°19'1313.0
2016-Jun-23 00:34N 37°26' W 026°35'1313.0
2016-Jun-22 23:34N 37°26' W 026°52'1413.7
2016-Jun-22 22:33N 37°26' W 027°09'1413.5
2016-Jun-22 21:32N 37°26' W 027°26'1313.2
2016-Jun-22 20:31N 37°26' W 027°43'1313.3
2016-Jun-22 19:33N 37°26' W 027°59'1313.4
2016-Jun-22 18:33N 37°26' W 028°16'1413.5
2016-Jun-22 17:33N 37°26' W 028°33'1313.4
2016-Jun-22 16:33N 37°26' W 028°50'1312.9
2016-Jun-22 15:33N 37°25' W 029°06'1312.7
2016-Jun-22 14:33N 37°25' W 029°23'1212.4
2016-Jun-22 13:33N 37°25' W 029°38'1212.6
2016-Jun-22 12:34N 37°25' W 029°54'1312.8
2016-Jun-22 11:33N 37°25' W 030°10'1313.0
2016-Jun-22 10:33N 37°24' W 030°26'1313.0
2016-Jun-22 09:33N 37°23' W 030°43'1313.0
2016-Jun-22 08:33N 37°22' W 030°59'1313.4
2016-Jun-22 07:33N 37°21' W 031°16'1313.4
2016-Jun-22 06:34N 37°20' W 031°32'1413.7
2016-Jun-22 05:33N 37°19' W 031°50'1313.3
2016-Jun-22 04:33N 37°19' W 032°06'1313.2
2016-Jun-22 03:34N 37°18' W 032°23'1313.4
2016-Jun-22 02:33N 37°17' W 032°40'1312.9
2016-Jun-22 01:34N 37°16' W 032°56'1313.0
2016-Jun-22 00:33N 37°15' W 033°12'1313.1
2016-Jun-21 23:33N 37°15' W 033°29'1312.7
2016-Jun-21 22:32N 37°14' W 033°45'5213.1
2016-Jun-21 18:33N 37°10' W 034°50'1513.3
2016-Jun-21 17:24N 37°09' W 035°09'  

Dump ship's entire track history